sensor_id;sensor_type;location;lat;lon;timestamp;temperature;humidity
65129;DHT22;51708;44.748;19.690;2022-07-12T00:02:01;23.70;36.40
65129;DHT22;51708;44.748;19.690;2022-07-12T00:04:28;23.70;36.60
65129;DHT22;51708;44.748;19.690;2022-07-12T00:06:54;23.60;36.50
65129;DHT22;51708;44.748;19.690;2022-07-12T00:09:20;23.60;36.40
65129;DHT22;51708;44.748;19.690;2022-07-12T00:11:46;23.60;36.30
65129;DHT22;51708;44.748;19.690;2022-07-12T00:14:11;23.60;36.20
65129;DHT22;51708;44.748;19.690;2022-07-12T00:16:37;23.60;36.00
65129;DHT22;51708;44.748;19.690;2022-07-12T00:19:03;23.60;36.00
65129;DHT22;51708;44.748;19.690;2022-07-12T00:21:29;23.60;36.10
65129;DHT22;51708;44.748;19.690;2022-07-12T00:23:55;23.50;36.10
65129;DHT22;51708;44.748;19.690;2022-07-12T00:26:21;23.50;35.90
65129;DHT22;51708;44.748;19.690;2022-07-12T00:28:48;23.50;35.80
65129;DHT22;51708;44.748;19.690;2022-07-12T00:31:13;23.50;35.80
65129;DHT22;51708;44.748;19.690;2022-07-12T00:33:39;23.50;36.10
65129;DHT22;51708;44.748;19.690;2022-07-12T00:36:05;23.20;36.90
65129;DHT22;51708;44.748;19.690;2022-07-12T00:38:31;23.10;37.30
65129;DHT22;51708;44.748;19.690;2022-07-12T00:40:57;23.00;37.40
65129;DHT22;51708;44.748;19.690;2022-07-12T00:43:23;23.20;37.40
65129;DHT22;51708;44.748;19.690;2022-07-12T00:45:49;23.00;37.70
65129;DHT22;51708;44.748;19.690;2022-07-12T00:48:17;23.00;37.90
65129;DHT22;51708;44.748;19.690;2022-07-12T00:50:47;23.10;37.80
65129;DHT22;51708;44.748;19.690;2022-07-12T00:53:13;22.90;38.10
65129;DHT22;51708;44.748;19.690;2022-07-12T00:55:40;22.90;38.10
65129;DHT22;51708;44.748;19.690;2022-07-12T00:58:06;22.90;38.20
65129;DHT22;51708;44.748;19.690;2022-07-12T01:00:32;23.00;37.90
65129;DHT22;51708;44.748;19.690;2022-07-12T01:03:00;22.80;38.10
65129;DHT22;51708;44.748;19.690;2022-07-12T01:05:30;22.90;38.10
65129;DHT22;51708;44.748;19.690;2022-07-12T01:07:56;22.90;38.00
65129;DHT22;51708;44.748;19.690;2022-07-12T01:10:23;22.80;38.10
65129;DHT22;51708;44.748;19.690;2022-07-12T01:12:49;22.80;38.20
65129;DHT22;51708;44.748;19.690;2022-07-12T01:15:16;22.50;38.90
65129;DHT22;51708;44.748;19.690;2022-07-12T01:17:44;22.30;39.40
65129;DHT22;51708;44.748;19.690;2022-07-12T01:20:11;22.30;39.20
65129;DHT22;51708;44.748;19.690;2022-07-12T01:22:40;22.30;39.40
65129;DHT22;51708;44.748;19.690;2022-07-12T01:25:06;22.30;39.30
65129;DHT22;51708;44.748;19.690;2022-07-12T01:27:33;22.30;39.20
65129;DHT22;51708;44.748;19.690;2022-07-12T01:30:02;22.40;39.10
65129;DHT22;51708;44.748;19.690;2022-07-12T01:32:28;22.40;38.80
65129;DHT22;51708;44.748;19.690;2022-07-12T01:34:57;22.20;39.10
65129;DHT22;51708;44.748;19.690;2022-07-12T01:37:25;22.40;39.00
65129;DHT22;51708;44.748;19.690;2022-07-12T01:39:56;22.40;38.80
65129;DHT22;51708;44.748;19.690;2022-07-12T01:42:24;22.40;38.80
65129;DHT22;51708;44.748;19.690;2022-07-12T01:44:51;22.60;38.50
65129;DHT22;51708;44.748;19.690;2022-07-12T01:47:18;22.60;38.40
65129;DHT22;51708;44.748;19.690;2022-07-12T01:49:44;22.60;38.30
65129;DHT22;51708;44.748;19.690;2022-07-12T01:52:10;22.60;38.30
65129;DHT22;51708;44.748;19.690;2022-07-12T01:54:36;22.50;38.60
65129;DHT22;51708;44.748;19.690;2022-07-12T01:57:05;22.50;38.60
65129;DHT22;51708;44.748;19.690;2022-07-12T01:59:32;22.50;38.60
65129;DHT22;51708;44.748;19.690;2022-07-12T02:01:58;22.50;38.60
65129;DHT22;51708;44.748;19.690;2022-07-12T02:04:25;22.50;38.90
65129;DHT22;51708;44.748;19.690;2022-07-12T02:06:50;22.50;38.30
65129;DHT22;51708;44.748;19.690;2022-07-12T02:09:17;22.60;38.40
65129;DHT22;51708;44.748;19.690;2022-07-12T02:11:44;22.40;38.80
65129;DHT22;51708;44.748;19.690;2022-07-12T02:14:11;22.30;38.90
65129;DHT22;51708;44.748;19.690;2022-07-12T02:16:38;22.10;39.40
65129;DHT22;51708;44.748;19.690;2022-07-12T02:19:04;22.20;40.30
65129;DHT22;51708;44.748;19.690;2022-07-12T02:21:30;22.20;39.40
65129;DHT22;51708;44.748;19.690;2022-07-12T02:23:56;22.30;39.10
65129;DHT22;51708;44.748;19.690;2022-07-12T02:26:22;22.30;39.00
65129;DHT22;51708;44.748;19.690;2022-07-12T02:28:47;22.30;39.00
65129;DHT22;51708;44.748;19.690;2022-07-12T02:31:13;22.20;39.10
65129;DHT22;51708;44.748;19.690;2022-07-12T02:33:39;22.30;39.00
65129;DHT22;51708;44.748;19.690;2022-07-12T02:36:05;22.20;39.30
65129;DHT22;51708;44.748;19.690;2022-07-12T02:38:31;22.10;39.40
65129;DHT22;51708;44.748;19.690;2022-07-12T02:40:56;22.00;40.60
65129;DHT22;51708;44.748;19.690;2022-07-12T02:45:50;22.00;39.60
65129;DHT22;51708;44.748;19.690;2022-07-12T02:48:16;22.10;39.60
65129;DHT22;51708;44.748;19.690;2022-07-12T02:50:43;22.00;39.60
65129;DHT22;51708;44.748;19.690;2022-07-12T02:53:09;21.90;40.20
65129;DHT22;51708;44.748;19.690;2022-07-12T02:55:36;21.80;40.40
65129;DHT22;51708;44.748;19.690;2022-07-12T02:58:03;21.70;40.60
65129;DHT22;51708;44.748;19.690;2022-07-12T03:00:29;21.60;40.70
65129;DHT22;51708;44.748;19.690;2022-07-12T03:02:55;21.70;40.60
65129;DHT22;51708;44.748;19.690;2022-07-12T03:05:21;21.80;40.40
65129;DHT22;51708;44.748;19.690;2022-07-12T03:07:46;21.70;40.50
65129;DHT22;51708;44.748;19.690;2022-07-12T03:10:12;21.70;40.70
65129;DHT22;51708;44.748;19.690;2022-07-12T03:12:38;21.70;40.50
65129;DHT22;51708;44.748;19.690;2022-07-12T03:15:05;21.60;40.80
65129;DHT22;51708;44.748;19.690;2022-07-12T03:17:32;21.60;40.70
65129;DHT22;51708;44.748;19.690;2022-07-12T03:19:58;21.70;40.40
65129;DHT22;51708;44.748;19.690;2022-07-12T03:22:24;21.80;40.30
65129;DHT22;51708;44.748;19.690;2022-07-12T03:24:50;21.90;40.10
65129;DHT22;51708;44.748;19.690;2022-07-12T03:27:17;21.80;40.20
65129;DHT22;51708;44.748;19.690;2022-07-12T03:29:43;21.80;40.20
65129;DHT22;51708;44.748;19.690;2022-07-12T03:32:09;21.80;40.30
65129;DHT22;51708;44.748;19.690;2022-07-12T03:34:36;21.80;40.30
65129;DHT22;51708;44.748;19.690;2022-07-12T03:37:02;21.80;40.40
65129;DHT22;51708;44.748;19.690;2022-07-12T03:39:28;21.90;40.10
65129;DHT22;51708;44.748;19.690;2022-07-12T03:41:54;21.90;41.00
65129;DHT22;51708;44.748;19.690;2022-07-12T03:44:20;22.00;39.80
65129;DHT22;51708;44.748;19.690;2022-07-12T03:46:46;22.00;39.60
65129;DHT22;51708;44.748;19.690;2022-07-12T03:49:13;22.00;39.60
65129;DHT22;51708;44.748;19.690;2022-07-12T03:51:39;21.90;39.90
65129;DHT22;51708;44.748;19.690;2022-07-12T03:54:06;21.80;40.40
65129;DHT22;51708;44.748;19.690;2022-07-12T03:56:36;21.70;40.70
65129;DHT22;51708;44.748;19.690;2022-07-12T03:59:21;21.50;41.20
65129;DHT22;51708;44.748;19.690;2022-07-12T04:01:47;21.40;41.00
65129;DHT22;51708;44.748;19.690;2022-07-12T04:04:13;21.40;41.10
65129;DHT22;51708;44.748;19.690;2022-07-12T04:06:39;21.40;41.30
65129;DHT22;51708;44.748;19.690;2022-07-12T04:09:05;21.50;40.90
65129;DHT22;51708;44.748;19.690;2022-07-12T04:11:32;21.50;40.80
65129;DHT22;51708;44.748;19.690;2022-07-12T04:13:58;21.50;41.00
65129;DHT22;51708;44.748;19.690;2022-07-12T04:16:24;21.50;41.30
65129;DHT22;51708;44.748;19.690;2022-07-12T04:18:50;21.50;41.20
65129;DHT22;51708;44.748;19.690;2022-07-12T04:21:16;21.50;41.20
65129;DHT22;51708;44.748;19.690;2022-07-12T04:23:42;21.50;41.30
65129;DHT22;51708;44.748;19.690;2022-07-12T04:26:07;21.70;41.20
65129;DHT22;51708;44.748;19.690;2022-07-12T04:28:35;21.70;40.80
65129;DHT22;51708;44.748;19.690;2022-07-12T04:31:01;21.80;41.70
65129;DHT22;51708;44.748;19.690;2022-07-12T04:33:28;21.80;40.50
65129;DHT22;51708;44.748;19.690;2022-07-12T04:35:54;21.90;40.50
65129;DHT22;51708;44.748;19.690;2022-07-12T04:38:19;21.90;40.60
65129;DHT22;51708;44.748;19.690;2022-07-12T04:40:45;21.80;40.90
65129;DHT22;51708;44.748;19.690;2022-07-12T04:43:11;21.60;41.60
65129;DHT22;51708;44.748;19.690;2022-07-12T04:45:37;21.70;41.50
65129;DHT22;51708;44.748;19.690;2022-07-12T04:48:03;21.80;41.30
65129;DHT22;51708;44.748;19.690;2022-07-12T04:50:29;21.80;41.50
65129;DHT22;51708;44.748;19.690;2022-07-12T04:52:54;21.80;41.50
65129;DHT22;51708;44.748;19.690;2022-07-12T04:55:20;21.80;41.80
65129;DHT22;51708;44.748;19.690;2022-07-12T04:57:46;21.60;42.50
65129;DHT22;51708;44.748;19.690;2022-07-12T05:00:12;21.50;42.50
65129;DHT22;51708;44.748;19.690;2022-07-12T05:02:39;21.50;42.90
65129;DHT22;51708;44.748;19.690;2022-07-12T05:05:05;21.50;42.90
65129;DHT22;51708;44.748;19.690;2022-07-12T05:07:31;21.50;42.90
65129;DHT22;51708;44.748;19.690;2022-07-12T05:09:57;21.30;43.50
65129;DHT22;51708;44.748;19.690;2022-07-12T05:12:23;21.20;44.00
65129;DHT22;51708;44.748;19.690;2022-07-12T05:14:48;21.10;44.30
65129;DHT22;51708;44.748;19.690;2022-07-12T05:17:14;21.30;43.90
65129;DHT22;51708;44.748;19.690;2022-07-12T05:19:40;21.40;43.40
65129;DHT22;51708;44.748;19.690;2022-07-12T05:22:06;21.40;43.70
65129;DHT22;51708;44.748;19.690;2022-07-12T05:24:32;21.50;43.20
65129;DHT22;51708;44.748;19.690;2022-07-12T05:26:58;21.50;43.50
65129;DHT22;51708;44.748;19.690;2022-07-12T05:29:23;21.50;43.20
65129;DHT22;51708;44.748;19.690;2022-07-12T05:31:49;21.20;43.80
65129;DHT22;51708;44.748;19.690;2022-07-12T05:34:15;21.20;44.10
65129;DHT22;51708;44.748;19.690;2022-07-12T05:36:41;21.00;44.70
65129;DHT22;51708;44.748;19.690;2022-07-12T05:39:06;20.90;45.50
65129;DHT22;51708;44.748;19.690;2022-07-12T05:41:32;20.90;45.10
65129;DHT22;51708;44.748;19.690;2022-07-12T05:43:58;21.00;45.10
65129;DHT22;51708;44.748;19.690;2022-07-12T05:46:24;21.40;43.90
65129;DHT22;51708;44.748;19.690;2022-07-12T05:48:50;21.40;43.90
65129;DHT22;51708;44.748;19.690;2022-07-12T05:51:15;21.30;44.50
65129;DHT22;51708;44.748;19.690;2022-07-12T05:54:07;21.20;44.90
65129;DHT22;51708;44.748;19.690;2022-07-12T05:56:33;21.20;45.10
65129;DHT22;51708;44.748;19.690;2022-07-12T05:58:59;21.20;45.20
65129;DHT22;51708;44.748;19.690;2022-07-12T06:01:24;21.30;44.80
65129;DHT22;51708;44.748;19.690;2022-07-12T06:03:50;21.10;45.20
65129;DHT22;51708;44.748;19.690;2022-07-12T06:06:16;21.20;45.40
65129;DHT22;51708;44.748;19.690;2022-07-12T06:08:42;21.20;45.20
65129;DHT22;51708;44.748;19.690;2022-07-12T06:11:08;21.20;45.20
65129;DHT22;51708;44.748;19.690;2022-07-12T06:13:34;21.40;44.80
65129;DHT22;51708;44.748;19.690;2022-07-12T06:15:59;21.60;44.30
65129;DHT22;51708;44.748;19.690;2022-07-12T06:18:25;21.70;44.20
65129;DHT22;51708;44.748;19.690;2022-07-12T06:20:52;21.80;43.90
65129;DHT22;51708;44.748;19.690;2022-07-12T06:23:18;21.80;43.60
65129;DHT22;51708;44.748;19.690;2022-07-12T06:25:44;21.90;43.30
65129;DHT22;51708;44.748;19.690;2022-07-12T06:28:11;21.90;42.60
65129;DHT22;51708;44.748;19.690;2022-07-12T06:30:37;21.90;42.80
65129;DHT22;51708;44.748;19.690;2022-07-12T06:33:03;22.00;43.00
65129;DHT22;51708;44.748;19.690;2022-07-12T06:35:29;22.10;42.60
65129;DHT22;51708;44.748;19.690;2022-07-12T06:37:55;22.10;42.20
65129;DHT22;51708;44.748;19.690;2022-07-12T06:40:20;22.10;42.70
65129;DHT22;51708;44.748;19.690;2022-07-12T06:42:46;22.00;42.90
65129;DHT22;51708;44.748;19.690;2022-07-12T06:45:14;22.00;42.60
65129;DHT22;51708;44.748;19.690;2022-07-12T06:47:40;22.20;42.80
65129;DHT22;51708;44.748;19.690;2022-07-12T06:50:06;22.10;42.90
65129;DHT22;51708;44.748;19.690;2022-07-12T06:52:32;22.20;42.50
65129;DHT22;51708;44.748;19.690;2022-07-12T06:54:58;22.10;42.40
65129;DHT22;51708;44.748;19.690;2022-07-12T06:57:24;22.00;42.00
65129;DHT22;51708;44.748;19.690;2022-07-12T06:59:52;22.10;41.80
65129;DHT22;51708;44.748;19.690;2022-07-12T07:02:18;22.10;41.60
65129;DHT22;51708;44.748;19.690;2022-07-12T07:04:44;22.00;41.70
65129;DHT22;51708;44.748;19.690;2022-07-12T07:07:09;22.00;41.90
65129;DHT22;51708;44.748;19.690;2022-07-12T07:09:35;21.90;41.80
65129;DHT22;51708;44.748;19.690;2022-07-12T07:12:01;21.90;41.60
65129;DHT22;51708;44.748;19.690;2022-07-12T07:14:27;22.10;40.70
65129;DHT22;51708;44.748;19.690;2022-07-12T07:16:53;22.20;40.60
65129;DHT22;51708;44.748;19.690;2022-07-12T07:19:19;22.30;40.20
65129;DHT22;51708;44.748;19.690;2022-07-12T07:21:46;22.40;40.30
65129;DHT22;51708;44.748;19.690;2022-07-12T07:24:12;22.40;40.50
65129;DHT22;51708;44.748;19.690;2022-07-12T07:26:38;22.50;40.10
65129;DHT22;51708;44.748;19.690;2022-07-12T07:29:03;22.30;40.40
65129;DHT22;51708;44.748;19.690;2022-07-12T07:31:48;22.30;40.60
65129;DHT22;51708;44.748;19.690;2022-07-12T07:34:14;22.40;40.40
65129;DHT22;51708;44.748;19.690;2022-07-12T07:36:39;22.50;40.20
65129;DHT22;51708;44.748;19.690;2022-07-12T07:39:06;22.20;41.10
65129;DHT22;51708;44.748;19.690;2022-07-12T07:41:31;22.20;41.10
65129;DHT22;51708;44.748;19.690;2022-07-12T07:43:57;22.30;41.10
65129;DHT22;51708;44.748;19.690;2022-07-12T07:46:23;22.50;40.70
65129;DHT22;51708;44.748;19.690;2022-07-12T07:48:49;22.70;40.40
65129;DHT22;51708;44.748;19.690;2022-07-12T07:51:14;22.80;40.50
65129;DHT22;51708;44.748;19.690;2022-07-12T07:53:40;22.80;41.00
65129;DHT22;51708;44.748;19.690;2022-07-12T07:56:06;22.70;40.10
65129;DHT22;51708;44.748;19.690;2022-07-12T07:58:32;22.80;40.10
65129;DHT22;51708;44.748;19.690;2022-07-12T08:00:58;22.80;39.90
65129;DHT22;51708;44.748;19.690;2022-07-12T08:03:24;22.70;39.40
65129;DHT22;51708;44.748;19.690;2022-07-12T08:05:50;22.60;38.80
65129;DHT22;51708;44.748;19.690;2022-07-12T08:08:17;22.60;39.10
65129;DHT22;51708;44.748;19.690;2022-07-12T08:10:43;22.70;38.90
65129;DHT22;51708;44.748;19.690;2022-07-12T08:13:09;22.70;38.80
65129;DHT22;51708;44.748;19.690;2022-07-12T08:15:35;22.70;38.40
65129;DHT22;51708;44.748;19.690;2022-07-12T08:18:01;22.60;38.40
65129;DHT22;51708;44.748;19.690;2022-07-12T08:20:28;22.70;38.20
65129;DHT22;51708;44.748;19.690;2022-07-12T08:22:54;22.90;38.20
65129;DHT22;51708;44.748;19.690;2022-07-12T08:25:20;22.80;38.70
65129;DHT22;51708;44.748;19.690;2022-07-12T08:27:46;22.80;38.20
65129;DHT22;51708;44.748;19.690;2022-07-12T08:30:11;23.00;38.20
65129;DHT22;51708;44.748;19.690;2022-07-12T08:32:43;23.00;38.10
65129;DHT22;51708;44.748;19.690;2022-07-12T08:35:09;23.20;37.80
65129;DHT22;51708;44.748;19.690;2022-07-12T08:37:35;23.30;37.70
65129;DHT22;51708;44.748;19.690;2022-07-12T08:40:00;23.30;37.40
65129;DHT22;51708;44.748;19.690;2022-07-12T08:42:26;23.00;36.80
65129;DHT22;51708;44.748;19.690;2022-07-12T08:44:56;23.00;37.10
65129;DHT22;51708;44.748;19.690;2022-07-12T08:47:22;23.10;36.80
65129;DHT22;51708;44.748;19.690;2022-07-12T08:52:49;23.30;37.10
65129;DHT22;51708;44.748;19.690;2022-07-12T08:55:34;23.50;36.90
65129;DHT22;51708;44.748;19.690;2022-07-12T08:58:02;23.40;35.80
65129;DHT22;51708;44.748;19.690;2022-07-12T09:00:29;23.50;34.70
65129;DHT22;51708;44.748;19.690;2022-07-12T09:03:00;23.60;34.10
65129;DHT22;51708;44.748;19.690;2022-07-12T09:05:28;23.60;34.70
65129;DHT22;51708;44.748;19.690;2022-07-12T09:08:28;23.90;34.70
65129;DHT22;51708;44.748;19.690;2022-07-12T09:11:02;23.90;34.40
65129;DHT22;51708;44.748;19.690;2022-07-12T09:16:25;24.20;33.40
65129;DHT22;51708;44.748;19.690;2022-07-12T09:19:10;24.00;33.30
65129;DHT22;51708;44.748;19.690;2022-07-12T09:21:36;24.10;33.40
65129;DHT22;51708;44.748;19.690;2022-07-12T09:24:02;23.90;33.80
65129;DHT22;51708;44.748;19.690;2022-07-12T09:26:32;23.70;33.50
65129;DHT22;51708;44.748;19.690;2022-07-12T09:29:08;23.80;33.50
65129;DHT22;51708;44.748;19.690;2022-07-12T09:31:44;24.10;33.60
65129;DHT22;51708;44.748;19.690;2022-07-12T09:34:29;24.40;33.30
65129;DHT22;51708;44.748;19.690;2022-07-12T09:37:14;24.50;32.90
65129;DHT22;51708;44.748;19.690;2022-07-12T09:39:40;24.60;33.30
65129;DHT22;51708;44.748;19.690;2022-07-12T09:42:08;24.60;33.30
65129;DHT22;51708;44.748;19.690;2022-07-12T09:44:40;24.70;32.60
65129;DHT22;51708;44.748;19.690;2022-07-12T09:47:09;24.90;31.90
65129;DHT22;51708;44.748;19.690;2022-07-12T09:49:39;24.90;31.00
65129;DHT22;51708;44.748;19.690;2022-07-12T09:52:05;24.90;31.10
65129;DHT22;51708;44.748;19.690;2022-07-12T09:54:35;25.10;30.90
65129;DHT22;51708;44.748;19.690;2022-07-12T09:57:29;25.10;30.00
65129;DHT22;51708;44.748;19.690;2022-07-12T10:00:00;25.10;30.20
65129;DHT22;51708;44.748;19.690;2022-07-12T10:02:27;25.20;30.40
65129;DHT22;51708;44.748;19.690;2022-07-12T10:04:54;25.20;30.60
65129;DHT22;51708;44.748;19.690;2022-07-12T10:07:20;25.30;30.30
65129;DHT22;51708;44.748;19.690;2022-07-12T10:09:50;25.30;31.20
65129;DHT22;51708;44.748;19.690;2022-07-12T10:12:19;25.10;30.30
65129;DHT22;51708;44.748;19.690;2022-07-12T10:14:46;24.90;29.80
65129;DHT22;51708;44.748;19.690;2022-07-12T10:17:22;25.00;30.00
65129;DHT22;51708;44.748;19.690;2022-07-12T10:19:47;25.00;30.20
65129;DHT22;51708;44.748;19.690;2022-07-12T10:22:20;25.10;30.10
65129;DHT22;51708;44.748;19.690;2022-07-12T10:24:48;25.30;30.10
65129;DHT22;51708;44.748;19.690;2022-07-12T10:29:48;25.30;29.90
65129;DHT22;51708;44.748;19.690;2022-07-12T10:32:34;25.30;29.60
65129;DHT22;51708;44.748;19.690;2022-07-12T10:37:28;25.70;29.90
65129;DHT22;51708;44.748;19.690;2022-07-12T10:40:17;25.50;29.80
65129;DHT22;51708;44.748;19.690;2022-07-12T10:45:33;25.70;30.30
65129;DHT22;51708;44.748;19.690;2022-07-12T10:48:01;25.70;29.80
65129;DHT22;51708;44.748;19.690;2022-07-12T10:58:37;26.30;28.60
65129;DHT22;51708;44.748;19.690;2022-07-12T11:01:08;26.40;28.60
65129;DHT22;51708;44.748;19.690;2022-07-12T11:06:07;26.50;28.00
65129;DHT22;51708;44.748;19.690;2022-07-12T11:11:19;26.50;28.40
65129;DHT22;51708;44.748;19.690;2022-07-12T11:13:46;26.50;27.60
65129;DHT22;51708;44.748;19.690;2022-07-12T11:16:12;26.70;27.30
65129;DHT22;51708;44.748;19.690;2022-07-12T11:18:38;26.90;26.80
65129;DHT22;51708;44.748;19.690;2022-07-12T11:21:05;26.90;26.80
65129;DHT22;51708;44.748;19.690;2022-07-12T11:23:31;26.80;29.20
65129;DHT22;51708;44.748;19.690;2022-07-12T11:25:59;27.00;30.00
65129;DHT22;51708;44.748;19.690;2022-07-12T11:28:27;27.10;30.00
65129;DHT22;51708;44.748;19.690;2022-07-12T11:31:00;27.30;29.90
65129;DHT22;51708;44.748;19.690;2022-07-12T11:33:28;27.20;29.80
65129;DHT22;51708;44.748;19.690;2022-07-12T11:35:59;27.20;30.20
65129;DHT22;51708;44.748;19.690;2022-07-12T11:38:25;26.90;30.60
65129;DHT22;51708;44.748;19.690;2022-07-12T11:41:01;26.50;31.70
65129;DHT22;51708;44.748;19.690;2022-07-12T11:43:27;26.60;31.50
65129;DHT22;51708;44.748;19.690;2022-07-12T11:45:54;26.80;30.90
65129;DHT22;51708;44.748;19.690;2022-07-12T11:48:21;27.00;30.20
65129;DHT22;51708;44.748;19.690;2022-07-12T11:50:50;27.40;29.70
65129;DHT22;51708;44.748;19.690;2022-07-12T11:53:24;27.30;30.20
65129;DHT22;51708;44.748;19.690;2022-07-12T11:55:51;27.80;30.10
65129;DHT22;51708;44.748;19.690;2022-07-12T11:58:19;29.20;28.20
65129;DHT22;51708;44.748;19.690;2022-07-12T12:00:46;31.10;26.10
65129;DHT22;51708;44.748;19.690;2022-07-12T12:03:14;32.40;24.80
65129;DHT22;51708;44.748;19.690;2022-07-12T12:05:42;33.00;24.30
65129;DHT22;51708;44.748;19.690;2022-07-12T12:08:08;33.60;23.40
65129;DHT22;51708;44.748;19.690;2022-07-12T12:10:42;34.10;22.10
65129;DHT22;51708;44.748;19.690;2022-07-12T12:13:16;34.10;22.40
65129;DHT22;51708;44.748;19.690;2022-07-12T12:15:58;33.90;22.00
65129;DHT22;51708;44.748;19.690;2022-07-12T12:18:38;33.90;21.80
65129;DHT22;51708;44.748;19.690;2022-07-12T12:21:05;33.70;22.50
65129;DHT22;51708;44.748;19.690;2022-07-12T12:23:32;33.60;22.70
65129;DHT22;51708;44.748;19.690;2022-07-12T12:26:18;34.40;22.00
65129;DHT22;51708;44.748;19.690;2022-07-12T12:28:51;35.60;21.60
65129;DHT22;51708;44.748;19.690;2022-07-12T12:31:19;37.00;20.50
65129;DHT22;51708;44.748;19.690;2022-07-12T12:33:52;36.40;19.80
65129;DHT22;51708;44.748;19.690;2022-07-12T12:36:22;36.00;20.00
65129;DHT22;51708;44.748;19.690;2022-07-12T12:41:23;36.70;20.20
65129;DHT22;51708;44.748;19.690;2022-07-12T12:44:04;37.10;19.80
65129;DHT22;51708;44.748;19.690;2022-07-12T12:46:55;37.40;19.80
65129;DHT22;51708;44.748;19.690;2022-07-12T12:49:50;37.90;19.60
65129;DHT22;51708;44.748;19.690;2022-07-12T12:52:17;38.10;20.30
65129;DHT22;51708;44.748;19.690;2022-07-12T12:54:43;37.40;19.00
65129;DHT22;51708;44.748;19.690;2022-07-12T12:57:10;38.10;19.50
65129;DHT22;51708;44.748;19.690;2022-07-12T12:59:37;39.50;18.60
65129;DHT22;51708;44.748;19.690;2022-07-12T13:02:04;40.40;18.10
65129;DHT22;51708;44.748;19.690;2022-07-12T13:04:31;40.70;17.00
65129;DHT22;51708;44.748;19.690;2022-07-12T13:06:58;41.00;17.20
65129;DHT22;51708;44.748;19.690;2022-07-12T13:09:24;40.90;16.80
65129;DHT22;51708;44.748;19.690;2022-07-12T13:11:50;40.40;17.70
65129;DHT22;51708;44.748;19.690;2022-07-12T13:14:16;40.50;17.20
65129;DHT22;51708;44.748;19.690;2022-07-12T13:16:42;40.90;17.30
65129;DHT22;51708;44.748;19.690;2022-07-12T13:19:08;41.50;17.00
65129;DHT22;51708;44.748;19.690;2022-07-12T13:21:34;42.40;16.70
65129;DHT22;51708;44.748;19.690;2022-07-12T13:24:00;42.60;16.00
65129;DHT22;51708;44.748;19.690;2022-07-12T13:26:26;42.10;15.90
65129;DHT22;51708;44.748;19.690;2022-07-12T13:28:55;41.40;16.30
65129;DHT22;51708;44.748;19.690;2022-07-12T13:31:21;41.50;16.80
65129;DHT22;51708;44.748;19.690;2022-07-12T13:33:47;42.10;16.30
65129;DHT22;51708;44.748;19.690;2022-07-12T13:36:13;42.60;16.00
65129;DHT22;51708;44.748;19.690;2022-07-12T13:38:39;43.10;15.60
65129;DHT22;51708;44.748;19.690;2022-07-12T13:41:05;42.60;15.30
65129;DHT22;51708;44.748;19.690;2022-07-12T13:43:32;42.00;15.50
65129;DHT22;51708;44.748;19.690;2022-07-12T13:45:58;42.70;15.60
65129;DHT22;51708;44.748;19.690;2022-07-12T13:48:24;43.20;15.40
65129;DHT22;51708;44.748;19.690;2022-07-12T13:50:50;43.70;14.60
65129;DHT22;51708;44.748;19.690;2022-07-12T13:53:16;43.70;15.20
65129;DHT22;51708;44.748;19.690;2022-07-12T13:55:45;43.70;14.80
65129;DHT22;51708;44.748;19.690;2022-07-12T13:58:12;43.30;14.70
65129;DHT22;51708;44.748;19.690;2022-07-12T14:00:40;42.50;15.30
65129;DHT22;51708;44.748;19.690;2022-07-12T14:03:06;41.80;16.00
65129;DHT22;51708;44.748;19.690;2022-07-12T14:05:32;41.10;16.00
65129;DHT22;51708;44.748;19.690;2022-07-12T14:07:58;39.90;16.50
65129;DHT22;51708;44.748;19.690;2022-07-12T14:10:24;39.10;17.00
65129;DHT22;51708;44.748;19.690;2022-07-12T14:12:50;38.60;17.30
65129;DHT22;51708;44.748;19.690;2022-07-12T14:15:16;38.30;17.70
65129;DHT22;51708;44.748;19.690;2022-07-12T14:18:03;37.60;17.80
65129;DHT22;51708;44.748;19.690;2022-07-12T14:20:30;36.60;18.60
65129;DHT22;51708;44.748;19.690;2022-07-12T14:22:56;36.00;18.90
65129;DHT22;51708;44.748;19.690;2022-07-12T14:25:22;35.40;19.40
65129;DHT22;51708;44.748;19.690;2022-07-12T14:27:48;35.00;19.60
65129;DHT22;51708;44.748;19.690;2022-07-12T14:30:14;34.30;20.10
65129;DHT22;51708;44.748;19.690;2022-07-12T14:32:40;34.20;20.40
65129;DHT22;51708;44.748;19.690;2022-07-12T14:35:08;34.10;19.90
65129;DHT22;51708;44.748;19.690;2022-07-12T14:37:34;34.00;20.20
65129;DHT22;51708;44.748;19.690;2022-07-12T14:40:00;33.80;20.60
65129;DHT22;51708;44.748;19.690;2022-07-12T14:42:27;33.80;20.60
65129;DHT22;51708;44.748;19.690;2022-07-12T14:44:52;33.50;20.50
65129;DHT22;51708;44.748;19.690;2022-07-12T14:47:18;33.60;20.80
65129;DHT22;51708;44.748;19.690;2022-07-12T14:49:44;33.50;20.70
65129;DHT22;51708;44.748;19.690;2022-07-12T14:52:10;33.20;20.90
65129;DHT22;51708;44.748;19.690;2022-07-12T14:54:36;33.30;21.20
65129;DHT22;51708;44.748;19.690;2022-07-12T14:57:02;32.70;21.50
65129;DHT22;51708;44.748;19.690;2022-07-12T14:59:28;32.60;21.70
65129;DHT22;51708;44.748;19.690;2022-07-12T15:01:54;32.50;21.80
65129;DHT22;51708;44.748;19.690;2022-07-12T15:04:20;32.40;21.50
65129;DHT22;51708;44.748;19.690;2022-07-12T15:06:46;32.00;21.90
65129;DHT22;51708;44.748;19.690;2022-07-12T15:09:12;32.10;22.30
65129;DHT22;51708;44.748;19.690;2022-07-12T15:11:38;31.90;22.60
65129;DHT22;51708;44.748;19.690;2022-07-12T15:14:05;32.00;22.50
65129;DHT22;51708;44.748;19.690;2022-07-12T15:16:30;32.00;22.40
65129;DHT22;51708;44.748;19.690;2022-07-12T15:18:56;31.90;22.30
65129;DHT22;51708;44.748;19.690;2022-07-12T15:21:25;31.60;22.70
65129;DHT22;51708;44.748;19.690;2022-07-12T15:23:51;31.50;22.80
65129;DHT22;51708;44.748;19.690;2022-07-12T15:26:17;31.20;23.00
65129;DHT22;51708;44.748;19.690;2022-07-12T15:29:00;31.20;23.40
65129;DHT22;51708;44.748;19.690;2022-07-12T15:31:28;31.50;23.40
65129;DHT22;51708;44.748;19.690;2022-07-12T15:33:54;31.40;23.10
65129;DHT22;51708;44.748;19.690;2022-07-12T15:36:20;31.20;23.30
65129;DHT22;51708;44.748;19.690;2022-07-12T15:38:46;31.40;23.30
65129;DHT22;51708;44.748;19.690;2022-07-12T15:41:13;31.30;23.10
65129;DHT22;51708;44.748;19.690;2022-07-12T15:43:39;31.40;23.20
65129;DHT22;51708;44.748;19.690;2022-07-12T15:46:10;31.40;23.10
65129;DHT22;51708;44.748;19.690;2022-07-12T15:48:37;31.40;23.20
65129;DHT22;51708;44.748;19.690;2022-07-12T15:51:04;31.20;23.40